createdAt,value
2022-11-29T00:01:19.120Z,101604.56
2022-11-29T00:03:45.521Z,101597.47
2022-11-29T00:06:14.649Z,101605.38
2022-11-29T00:08:41.476Z,101606.19
2022-11-29T00:11:11.093Z,101621.41
2022-11-29T00:13:38.342Z,101611.06
2022-11-29T00:16:10.576Z,101613.66
2022-11-29T00:18:37.670Z,101616.25
2022-11-29T00:21:08.682Z,101624.00
2022-11-29T00:23:35.816Z,101626.59
2022-11-29T00:26:08.594Z,101617.34
2022-11-29T00:28:36.511Z,101621.19
2022-11-29T00:31:30.363Z,101616.97
2022-11-29T00:33:58.476Z,101624.88
2022-11-29T00:36:25.626Z,101624.56
2022-11-29T00:38:52.143Z,101627.84
2022-11-29T00:41:19.327Z,101632.72
2022-11-29T00:43:45.788Z,101634.50
2022-11-29T00:46:12.727Z,101624.16
2022-11-29T00:48:39.265Z,101625.63
2022-11-29T00:51:06.558Z,101611.88
2022-11-29T00:53:34.293Z,101613.66
2022-11-29T00:56:00.831Z,101619.63
2022-11-29T00:58:28.121Z,101619.78
2022-11-29T01:00:55.108Z,101618.81
2022-11-29T01:03:21.833Z,101616.09
2022-11-29T01:05:49.173Z,101623.84
2022-11-29T01:08:16.393Z,101621.13
2022-11-29T01:10:42.810Z,101631.47
2022-11-29T01:13:10.382Z,101638.16
2022-11-29T01:15:37.066Z,101630.53
2022-11-29T01:18:03.587Z,101627.94
2022-11-29T01:20:30.193Z,101632.97
2022-11-29T01:22:56.754Z,101634.72
2022-11-29T01:25:23.241Z,101633.13
2022-11-29T01:27:49.626Z,101646.06
2022-11-29T01:30:16.028Z,101640.88
2022-11-29T01:32:42.594Z,101651.09
2022-11-29T01:35:09.213Z,101646.72
2022-11-29T01:37:35.948Z,101653.53
2022-11-29T01:40:02.786Z,101648.66
2022-11-29T01:42:29.138Z,101644.41
2022-11-29T01:45:18.933Z,101647.16
2022-11-29T01:47:46.173Z,101651.22
2022-11-29T01:50:13.406Z,101658.84
2022-11-29T01:52:40.533Z,101653.69
2022-11-29T01:55:08.314Z,101661.59
2022-11-29T01:57:36.597Z,101656.41
2022-11-29T02:00:10.064Z,101653.81
2022-11-29T02:02:47.161Z,101663.19
2022-11-29T02:05:16.771Z,101656.56
2022-11-29T02:07:46.130Z,101662.66
2022-11-29T02:10:13.894Z,101664.59
2022-11-29T02:12:52.428Z,101662.81
2022-11-29T02:15:33.503Z,101670.56
2022-11-29T02:18:38.643Z,101668.00
2022-11-29T02:21:23.377Z,101667.03
2022-11-29T02:24:20.890Z,101667.19
2022-11-29T02:27:35.293Z,101662.66
2022-11-29T02:30:20.590Z,101663.47
2022-11-29T02:33:10.774Z,101672.22
2022-11-29T02:36:16.163Z,101671.38
2022-11-29T02:39:06.189Z,101682.56
2022-11-29T02:42:00.025Z,101678.63
2022-11-29T02:44:33.122Z,101682.47
2022-11-29T02:47:27.016Z,101681.78
2022-11-29T02:50:08.253Z,101683.56
2022-11-29T02:52:45.486Z,101683.56
2022-11-29T02:55:30.051Z,101699.22
2022-11-29T02:58:09.278Z,101689.81
2022-11-29T03:00:41.416Z,101703.22
2022-11-29T03:03:26.107Z,101710.44
2022-11-29T03:06:02.700Z,101712.63
2022-11-29T03:08:38.564Z,101709.91
2022-11-29T03:11:11.434Z,101710.19
2022-11-29T03:13:57.157Z,101705.84
2022-11-29T03:16:43.494Z,101705.44
2022-11-29T03:19:18.426Z,101706.69
2022-11-29T03:21:48.572Z,101707.63
2022-11-29T03:24:32.807Z,101711.19
2022-11-29T03:27:09.286Z,101717.03
2022-11-29T03:29:43.644Z,101719.75
2022-11-29T03:32:15.726Z,101721.41
2022-11-29T03:35:06.766Z,101720.72
2022-11-29T03:37:40.997Z,101724.69
2022-11-29T03:40:18.871Z,101727.81
2022-11-29T03:43:22.870Z,101730.94
2022-11-29T03:45:58.882Z,101734.19
2022-11-29T03:48:34.496Z,101731.91
2022-11-29T03:51:07.307Z,101739.66
2022-11-29T03:53:43.675Z,101742.66
2022-11-29T03:56:28.500Z,101740.75
2022-11-29T03:59:02.268Z,101743.06
2022-11-29T04:01:28.644Z,101746.97
2022-11-29T04:04:16.408Z,101754.88
2022-11-29T04:06:59.594Z,101763.19
2022-11-29T04:09:58.185Z,101755.44
2022-11-29T04:12:34.967Z,101758.03
2022-11-29T04:15:26.522Z,101761.53
2022-11-29T04:18:20.485Z,101763.19
2022-11-29T04:20:49.927Z,101761.97
2022-11-29T04:23:39.469Z,101762.50
2022-11-29T04:26:35.407Z,101763.63
2022-11-29T04:29:11.156Z,101770.25
2022-11-29T04:32:14.962Z,101771.38
2022-11-29T04:34:59.529Z,101766.06
2022-11-29T04:38:14.471Z,101768.13
2022-11-29T04:41:07.445Z,101773.00
2022-11-29T04:44:05.621Z,101778.16
2022-11-29T04:46:38.288Z,101776.41
2022-11-29T04:49:23.613Z,101776.41
2022-11-29T04:52:27.182Z,101784.56
2022-11-29T04:55:30.481Z,101784.44
2022-11-29T04:58:18.159Z,101783.06
2022-11-29T05:00:50.363Z,101783.47
2022-11-29T05:03:34.142Z,101793.56
2022-11-29T05:06:19.990Z,101794.13
2022-11-29T05:09:00.079Z,101795.47
2022-11-29T05:11:55.095Z,101805.81
2022-11-29T05:14:40.309Z,101799.56
2022-11-29T05:17:20.876Z,101808.94
2022-11-29T05:20:12.309Z,101812.88
2022-11-29T05:23:03.683Z,101817.78
2022-11-29T05:26:08.964Z,101819.25
2022-11-29T05:29:03.511Z,101817.38
2022-11-29T05:31:56.452Z,101824.28
2022-11-29T05:34:29.017Z,101813.97
2022-11-29T05:37:35.827Z,101824.16
2022-11-29T05:40:14.409Z,101830.16
2022-11-29T05:43:02.925Z,101825.00
2022-11-29T05:45:42.649Z,101830.00
2022-11-29T05:48:45.205Z,101836.28
2022-11-29T05:51:30.806Z,101846.75
2022-11-29T05:54:03.438Z,101851.66
2022-11-29T05:56:57.300Z,101851.78
2022-11-29T05:59:28.632Z,101850.84
2022-11-29T06:02:09.972Z,101852.59
2022-11-29T06:04:55.909Z,101862.00
2022-11-29T06:07:44.833Z,101866.06
2022-11-29T06:10:20.014Z,101856.56
2022-11-29T06:13:00.317Z,101864.31
2022-11-29T06:15:56.574Z,101861.59
2022-11-29T06:18:38.180Z,101864.03
2022-11-29T06:21:24.697Z,101866.63
2022-11-29T06:24:27.014Z,101865.94
2022-11-29T06:27:32.565Z,101864.84
2022-11-29T06:30:02.055Z,101877.66
2022-11-29T06:33:01.145Z,101883.63
2022-11-29T06:35:47.033Z,101881.31
2022-11-29T06:38:25.916Z,101877.91
2022-11-29T06:40:56.056Z,101881.44
2022-11-29T06:43:26.934Z,101886.63
2022-11-29T06:46:00.422Z,101895.22
2022-11-29T06:48:30.270Z,101901.06
2022-11-29T06:51:02.140Z,101902.81
2022-11-29T06:53:39.913Z,101897.66
2022-11-29T06:56:29.311Z,101908.13
2022-11-29T06:59:34.753Z,101915.19
2022-11-29T07:02:41.524Z,101913.44
2022-11-29T07:05:24.117Z,101926.63
2022-11-29T07:07:53.892Z,101925.81
2022-11-29T07:10:20.919Z,101927.44
2022-11-29T07:12:49.419Z,101931.53
2022-11-29T07:15:18.799Z,101926.63
2022-11-29T07:17:59.340Z,101941.47
2022-11-29T07:21:00.122Z,101938.19
2022-11-29T07:23:35.881Z,101946.78
2022-11-29T07:26:15.145Z,101950.31
2022-11-29T07:29:10.456Z,101951.94
2022-11-29T07:31:54.613Z,101965.00
2022-11-29T07:34:41.023Z,101965.13
2022-11-29T07:37:14.376Z,101966.59
2022-11-29T07:39:50.066Z,101972.47
2022-11-29T07:42:28.216Z,101975.06
2022-11-29T07:45:11.181Z,101975.88
2022-11-29T07:47:37.621Z,101976.41
2022-11-29T07:50:04.777Z,101978.75
2022-11-29T07:52:31.461Z,101986.63
2022-11-29T07:54:57.875Z,101986.75
2022-11-29T07:57:24.209Z,101992.72
2022-11-29T07:59:50.543Z,101992.72
2022-11-29T08:02:29.822Z,101994.25
2022-11-29T08:04:56.515Z,101991.66
2022-11-29T08:07:23.319Z,101992.59
2022-11-29T08:09:49.779Z,101993.44
2022-11-29T08:12:16.513Z,102001.19
2022-11-29T08:14:43.476Z,102003.78
2022-11-29T08:17:10.445Z,102010.81
2022-11-29T08:19:37.178Z,102016.00
2022-11-29T08:22:03.679Z,102007.69
2022-11-29T08:24:30.161Z,102012.72
2022-11-29T08:26:56.734Z,102013.69
2022-11-29T08:29:23.638Z,102010.16
2022-11-29T08:31:53.872Z,102012.88
2022-11-29T08:34:21.696Z,102024.19
2022-11-29T08:36:48.915Z,102010.16
2022-11-29T08:39:15.503Z,102010.16
2022-11-29T08:41:42.346Z,102016.84
2022-11-29T08:44:09.106Z,102019.16
2022-11-29T08:46:58.761Z,102017.25
2022-11-29T08:49:25.168Z,102020.13
2022-11-29T08:52:12.802Z,102020.25
2022-11-29T08:54:39.175Z,102025.03
2022-11-29T08:57:38.110Z,102022.44
2022-11-29T08:59:52.285Z,102029.28
2022-11-29T09:02:19.884Z,102026.69
2022-11-29T09:04:46.737Z,102032.66
2022-11-29T09:07:13.536Z,102034.31
2022-11-29T09:09:40.074Z,102039.91
2022-11-29T09:12:08.547Z,102037.03
2022-11-29T09:14:34.982Z,102037.72
2022-11-29T09:17:01.673Z,102035.94
2022-11-29T09:19:28.328Z,102039.06
2022-11-29T09:21:55.001Z,102042.63
2022-11-29T09:24:21.397Z,102045.75
2022-11-29T09:26:48.394Z,102050.53
2022-11-29T09:29:16.393Z,102044.56
2022-11-29T09:31:46.733Z,102052.88
2022-11-29T09:34:14.683Z,102053.00
2022-11-29T09:36:41.164Z,102055.06
2022-11-29T09:39:07.805Z,102056.69
2022-11-29T09:41:52.548Z,102059.28
2022-11-29T09:44:40.917Z,102062.69
2022-11-29T09:47:32.820Z,102073.84
2022-11-29T09:50:18.005Z,102076.97
2022-11-29T09:53:04.543Z,102078.63
2022-11-29T09:56:15.555Z,102082.69
2022-11-29T09:58:49.031Z,102095.63
2022-11-29T10:01:24.981Z,102086.53
2022-11-29T10:03:54.753Z,102090.59
2022-11-29T10:06:36.585Z,102088.44
2022-11-29T10:09:20.091Z,102091.84
2022-11-29T10:12:04.364Z,102096.09
2022-11-29T10:14:38.878Z,102100.97
2022-11-29T10:17:32.988Z,102095.38
2022-11-29T10:20:25.284Z,102096.50
2022-11-29T10:22:57.261Z,102097.97
2022-11-29T10:25:42.222Z,102083.56
2022-11-29T10:28:14.334Z,102089.28
2022-11-29T10:30:42.777Z,102089.94
2022-11-29T10:33:32.549Z,102089.00
2022-11-29T10:36:04.426Z,102092.13
2022-11-29T10:38:31.807Z,102090.66
2022-11-29T10:41:10.362Z,102092.97
2022-11-29T10:43:37.947Z,102085.06
2022-11-29T10:46:05.912Z,102093.53
2022-11-29T10:48:34.013Z,102098.13
2022-11-29T10:51:01.359Z,102089.53
2022-11-29T10:53:32.298Z,102083.03
2022-11-29T10:56:08.649Z,102084.50
2022-11-29T10:58:36.113Z,102084.66
2022-11-29T11:01:09.379Z,102083.31
2022-11-29T11:03:53.458Z,102090.34
2022-11-29T11:06:27.090Z,102095.25
2022-11-29T11:08:56.335Z,102091.88
2022-11-29T11:11:30.479Z,102091.59
2022-11-29T11:14:19.794Z,102088.72
2022-11-29T11:16:46.305Z,102079.53
2022-11-29T11:19:29.386Z,102084.16
2022-11-29T11:21:58.202Z,102081.41
2022-11-29T11:24:28.633Z,102077.31
2022-11-29T11:26:55.464Z,102081.25
2022-11-29T11:29:26.038Z,102090.94
2022-11-29T11:31:59.913Z,102087.53
2022-11-29T11:34:31.645Z,102091.34
2022-11-29T11:37:19.112Z,102093.22
2022-11-29T11:39:49.003Z,102092.41
2022-11-29T11:42:39.195Z,102094.88
2022-11-29T11:45:11.692Z,102095.00
2022-11-29T11:47:47.882Z,102093.81
2022-11-29T11:50:32.870Z,102096.81
2022-11-29T11:53:17.793Z,102102.28
2022-11-29T11:55:55.463Z,102106.38
2022-11-29T11:58:23.719Z,102110.56
2022-11-29T12:01:05.886Z,102106.56
2022-11-29T12:03:54.585Z,102110.81
2022-11-29T12:06:40.547Z,102112.69
2022-11-29T12:09:19.415Z,102111.09
2022-11-29T12:11:56.738Z,102120.31
2022-11-29T12:14:38.350Z,102120.81
2022-11-29T12:17:20.225Z,102115.50
2022-11-29T12:19:57.848Z,102117.38
2022-11-29T12:22:28.761Z,102121.84
2022-11-29T12:25:02.788Z,102121.06
2022-11-29T12:27:30.915Z,102126.84
2022-11-29T12:29:57.516Z,102128.91
2022-11-29T12:32:42.852Z,102128.31
2022-11-29T12:35:24.184Z,102125.31
2022-11-29T12:37:59.220Z,102130.63
2022-11-29T12:40:39.619Z,102136.09
2022-11-29T12:43:41.342Z,102145.69
2022-11-29T12:46:14.265Z,102146.47
2022-11-29T12:49:03.166Z,102150.16
2022-11-29T12:51:41.827Z,102153.97
2022-11-29T12:54:30.050Z,102153.69
2022-11-29T12:57:18.463Z,102146.75
2022-11-29T13:00:03.445Z,102151.66
2022-11-29T13:03:08.314Z,102154.97
2022-11-29T13:06:00.973Z,102158.38
2022-11-29T13:08:46.106Z,102151.84
2022-11-29T13:11:35.024Z,102162.66
2022-11-29T13:14:43.468Z,102158.69
2022-11-29T13:17:37.801Z,102162.22
2022-11-29T13:20:18.864Z,102164.97
2022-11-29T13:22:58.826Z,102165.91
2022-11-29T13:25:30.315Z,102160.56
2022-11-29T13:28:01.650Z,102169.56
2022-11-29T13:30:28.070Z,102163.66
2022-11-29T13:33:13.166Z,102164.47
2022-11-29T13:36:10.073Z,102162.72
2022-11-29T13:38:59.163Z,102169.38
2022-11-29T13:42:01.586Z,102167.63
2022-11-29T13:44:37.223Z,102183.31
2022-11-29T13:47:13.699Z,102171.97
2022-11-29T13:49:57.981Z,102166.78
2022-11-29T13:52:46.256Z,102174.69
2022-11-29T13:55:12.581Z,102166.78
2022-11-29T13:58:15.413Z,102171.81
2022-11-29T14:00:43.927Z,102175.41
2022-11-29T14:03:28.993Z,102174.56
2022-11-29T14:06:01.420Z,102174.56
2022-11-29T14:08:47.752Z,102171.44
2022-11-29T14:11:22.942Z,102176.38
2022-11-29T14:14:13.798Z,102166.56
2022-11-29T14:16:43.096Z,102164.41
2022-11-29T14:19:09.810Z,102175.88
2022-11-29T14:22:07.189Z,102174.66
2022-11-29T14:24:36.727Z,102171.97
2022-11-29T14:27:06.165Z,102175.56
2022-11-29T14:29:50.863Z,102169.69
2022-11-29T14:32:24.422Z,102176.00
2022-11-29T14:34:57.996Z,102178.72
2022-11-29T14:37:45.796Z,102173.69
2022-11-29T14:40:27.198Z,102186.78
2022-11-29T14:42:53.721Z,102185.78
2022-11-29T14:45:32.086Z,102182.09
2022-11-29T14:47:59.137Z,102180.84
2022-11-29T14:50:34.904Z,102185.88
2022-11-29T14:53:02.109Z,102199.50
2022-11-29T14:55:32.053Z,102194.97
2022-11-29T14:58:02.094Z,102183.38
2022-11-29T15:00:34.657Z,102192.50
2022-11-29T15:03:03.528Z,102194.66
2022-11-29T15:05:39.960Z,102187.56
2022-11-29T15:08:25.220Z,102189.72
2022-11-29T15:10:53.058Z,102183.41
2022-11-29T15:13:35.865Z,102184.88
2022-11-29T15:16:14.898Z,102186.34
2022-11-29T15:18:53.213Z,102186.47
2022-11-29T15:21:38.023Z,102193.13
2022-11-29T15:24:13.731Z,102200.56
2022-11-29T15:26:55.284Z,102205.56
2022-11-29T15:29:21.650Z,102200.50
2022-11-29T15:31:54.607Z,102204.28
2022-11-29T15:34:35.880Z,102203.41
2022-11-29T15:37:02.639Z,102201.19
2022-11-29T15:39:33.335Z,102202.66
2022-11-29T15:42:10.543Z,102207.50
2022-11-29T15:44:37.273Z,102214.00
2022-11-29T15:47:24.491Z,102220.22
2022-11-29T15:49:52.498Z,102221.06
2022-11-29T15:52:31.494Z,102224.44
2022-11-29T15:55:03.250Z,102227.72
2022-11-29T15:57:36.430Z,102231.03
2022-11-29T16:00:07.200Z,102231.72
2022-11-29T16:02:37.051Z,102239.34
2022-11-29T16:05:16.252Z,102228.75
2022-11-29T16:07:45.785Z,102227.66
2022-11-29T16:10:23.024Z,102231.91
2022-11-29T16:12:58.837Z,102227.66
2022-11-29T16:15:38.457Z,102236.13
2022-11-29T16:18:10.859Z,102240.22
2022-11-29T16:20:37.305Z,102231.53
2022-11-29T16:23:12.526Z,102232.22
2022-11-29T16:25:58.726Z,102233.88
2022-11-29T16:28:30.918Z,102237.13
2022-11-29T16:30:57.794Z,102234.31
2022-11-29T16:33:24.673Z,102237.59
2022-11-29T16:35:51.842Z,102239.09
2022-11-29T16:38:22.703Z,102241.44
2022-11-29T16:41:21.502Z,102244.59
2022-11-29T16:43:54.083Z,102253.03
2022-11-29T16:46:20.538Z,102241.75
2022-11-29T16:48:51.091Z,102245.97
2022-11-29T16:51:24.708Z,102240.66
2022-11-29T16:53:52.950Z,102243.97
2022-11-29T16:56:25.447Z,102239.59
2022-11-29T16:59:25.078Z,102243.97
2022-11-29T17:01:41.762Z,102243.13
2022-11-29T17:04:08.758Z,102242.31
2022-11-29T17:06:35.655Z,102244.09
2022-11-29T17:09:02.013Z,102242.31
2022-11-29T17:11:28.335Z,102248.28
2022-11-29T17:13:54.765Z,102251.59
2022-11-29T17:16:23.322Z,102258.38
2022-11-29T17:18:52.609Z,102259.06
2022-11-29T17:21:20.969Z,102261.66
2022-11-29T17:23:47.610Z,102264.97
2022-11-29T17:26:15.389Z,102257.06
2022-11-29T17:28:46.403Z,102256.13
2022-11-29T17:31:18.880Z,102253.53
2022-11-29T17:33:45.592Z,102256.13
2022-11-29T17:36:15.352Z,102256.13
2022-11-29T17:38:42.502Z,102259.41
2022-11-29T17:41:14.533Z,102275.75
2022-11-29T17:43:41.319Z,102268.78
2022-11-29T17:46:14.350Z,102271.38
2022-11-29T17:48:41.258Z,102268.78
2022-11-29T17:51:22.827Z,102268.78
2022-11-29T17:53:55.325Z,102267.03
2022-11-29T17:56:24.658Z,102263.50
2022-11-29T17:58:55.383Z,102273.84
2022-11-29T18:01:23.887Z,102278.75
2022-11-29T18:03:55.237Z,102282.28
2022-11-29T18:06:24.399Z,102275.25
2022-11-29T18:08:55.922Z,102286.41
2022-11-29T18:11:25.226Z,102283.81
2022-11-29T18:13:53.745Z,102281.22
2022-11-29T18:16:25.815Z,102281.22
2022-11-29T18:19:01.167Z,102286.28
2022-11-29T18:21:28.039Z,102295.69
2022-11-29T18:23:54.745Z,102298.25
2022-11-29T18:26:23.845Z,102304.13
2022-11-29T18:28:51.475Z,102306.72
2022-11-29T18:31:23.518Z,102303.44
2022-11-29T18:33:53.125Z,102311.88
2022-11-29T18:36:21.767Z,102305.91
2022-11-29T18:38:49.394Z,102305.91
2022-11-29T18:41:18.731Z,102304.13
2022-11-29T18:43:46.208Z,102305.75
2022-11-29T18:46:17.806Z,102307.41
2022-11-29T18:48:45.798Z,102306.72
2022-11-29T18:51:17.620Z,102312.69
2022-11-29T18:53:44.969Z,102316.94
2022-11-29T18:56:17.630Z,102312.69
2022-11-29T18:58:56.735Z,102308.31
2022-11-29T19:01:25.989Z,102322.09
2022-11-29T19:03:54.978Z,102314.34
2022-11-29T19:06:24.519Z,102316.09
2022-11-29T19:08:51.925Z,102322.78
2022-11-29T19:11:20.538Z,102321.84
2022-11-29T19:13:47.970Z,102325.00
2022-11-29T19:16:16.799Z,102325.00
2022-11-29T19:18:45.006Z,102322.16
2022-11-29T19:21:14.088Z,102325.56
2022-11-29T19:23:41.509Z,102328.97
2022-11-29T19:26:13.047Z,102327.09
2022-11-29T19:28:42.300Z,102332.13
2022-11-29T19:31:09.860Z,102327.78
2022-11-29T19:33:38.670Z,102323.41
2022-11-29T19:36:10.176Z,102327.78
2022-11-29T19:38:38.107Z,102334.59
2022-11-29T19:41:19.349Z,102330.22
2022-11-29T19:43:47.175Z,102335.28
2022-11-29T19:46:14.612Z,102325.88
2022-11-29T19:48:41.468Z,102340.47
2022-11-29T19:51:08.871Z,102330.09
2022-11-29T19:53:36.274Z,102334.34
2022-11-29T19:56:11.807Z,102337.06
2022-11-29T19:58:38.320Z,102344.69
2022-11-29T20:01:16.113Z,102340.34
2022-11-29T20:03:42.763Z,102339.41
2022-11-29T20:06:09.795Z,102343.59
2022-11-29T20:08:37.442Z,102343.59
2022-11-29T20:11:12.898Z,102343.59
2022-11-29T20:13:40.648Z,102352.19
2022-11-29T20:16:12.858Z,102350.69
2022-11-29T20:18:45.748Z,102347.16
2022-11-29T20:21:18.400Z,102354.75
2022-11-29T20:23:44.778Z,102352.34
2022-11-29T20:26:20.318Z,102354.75
2022-11-29T20:28:47.679Z,102353.81
2022-11-29T20:31:17.136Z,102354.50
2022-11-29T20:33:45.830Z,102351.00
2022-11-29T20:36:50.071Z,102350.19
2022-11-29T20:39:44.058Z,102358.06
2022-11-29T20:42:29.306Z,102358.88
2022-11-29T20:45:00.892Z,102354.50
2022-11-29T20:47:55.721Z,102362.28
2022-11-29T20:50:25.124Z,102368.28
2022-11-29T20:53:21.788Z,102362.28
2022-11-29T20:55:49.003Z,102373.47
2022-11-29T20:58:16.617Z,102377.81
2022-11-29T21:00:43.182Z,102382.03
2022-11-29T21:03:13.497Z,102376.06
2022-11-29T21:05:40.004Z,102379.34
2022-11-29T21:08:06.373Z,102375.09
2022-11-29T21:10:33.043Z,102382.84
2022-11-29T21:12:59.726Z,102380.38
2022-11-29T21:15:26.638Z,102384.50
2022-11-29T21:17:53.317Z,102386.28
2022-11-29T21:20:25.572Z,102389.00
2022-11-29T21:23:28.476Z,102389.13
2022-11-29T21:26:10.334Z,102393.31
2022-11-29T21:28:46.066Z,102395.09
2022-11-29T21:31:14.666Z,102392.53
2022-11-29T21:33:41.314Z,102401.09
2022-11-29T21:36:08.997Z,102401.09
2022-11-29T21:38:35.440Z,102394.16
2022-11-29T21:41:01.795Z,102412.16
2022-11-29T21:43:58.026Z,102395.66
2022-11-29T21:46:14.861Z,102405.22
2022-11-29T21:48:42.344Z,102405.09
2022-11-29T21:51:10.586Z,102408.59
2022-11-29T21:53:38.320Z,102406.88
2022-11-29T21:56:07.046Z,102409.44
2022-11-29T21:58:35.087Z,102414.50
2022-11-29T22:01:08.909Z,102408.59
2022-11-29T22:03:35.538Z,102413.91
2022-11-29T22:06:04.287Z,102415.00
2022-11-29T22:08:33.455Z,102409.81
2022-11-29T22:11:01.740Z,102412.78
2022-11-29T22:13:28.129Z,102417.97
2022-11-29T22:15:54.556Z,102411.97
2022-11-29T22:18:20.992Z,102421.59
2022-11-29T22:20:47.355Z,102413.72
2022-11-29T22:23:13.725Z,102418.88
2022-11-29T22:25:40.071Z,102422.56
2022-11-29T22:28:06.412Z,102411.63
2022-11-29T22:30:32.752Z,102417.75
2022-11-29T22:32:59.107Z,102423.06
2022-11-29T22:35:25.465Z,102424.97
2022-11-29T22:37:52.061Z,102428.47
2022-11-29T22:40:18.494Z,102418.38
2022-11-29T22:42:44.879Z,102422.00
2022-11-29T22:45:11.318Z,102423.91
2022-11-29T22:47:38.087Z,102423.34
2022-11-29T22:50:05.100Z,102427.84
2022-11-29T22:52:31.471Z,102432.28
2022-11-29T22:55:04.254Z,102435.94
2022-11-29T22:57:31.295Z,102432.81
2022-11-29T22:59:57.640Z,102438.91
2022-11-29T23:02:24.099Z,102438.09
2022-11-29T23:04:50.510Z,102430.44
2022-11-29T23:07:16.881Z,102442.53
2022-11-29T23:09:43.267Z,102438.44
2022-11-29T23:12:09.786Z,102447.84
2022-11-29T23:14:36.299Z,102441.84
2022-11-29T23:17:03.225Z,102442.94
2022-11-29T23:19:29.798Z,102454.22
2022-11-29T23:21:56.443Z,102447.50
2022-11-29T23:24:22.783Z,102440.72
2022-11-29T23:26:49.135Z,102441.63
2022-11-29T23:29:17.612Z,102440.72
2022-11-29T23:31:44.804Z,102445.03
2022-11-29T23:34:12.345Z,102446.00
2022-11-29T23:36:38.897Z,102439.19
2022-11-29T23:39:06.680Z,102438.25
2022-11-29T23:41:34.326Z,102445.75
2022-11-29T23:44:03.443Z,102448.91
2022-11-29T23:46:29.976Z,102453.00
2022-11-29T23:48:56.364Z,102448.78
2022-11-29T23:51:22.730Z,102448.78
2022-11-29T23:53:53.219Z,102447.03
2022-11-29T23:56:20.930Z,102447.16
2022-11-29T23:58:48.168Z,102446.22
